| time (UTC) | temp C | wind direction | speed KPH | gust KPH | rain 1hr cm | rain 24hr cm | rain mn cm | humidity % | barometer mb |
| 20260505034554 | 20 | 315 | 8.0 | 16.1 | 0.00 | 0.00 | 0.00 | 45 | 1003.4 |
| 20260505033052 | 21 | 317 | 8.0 | 16.1 | 0.00 | 0.00 | 0.00 | 43 | 1003.2 |
| 20260505030045 | 23 | 327 | 19.3 | 27.4 | 0.00 | 0.00 | 0.00 | 39 | 1002.6 |
| 20260505024644 | 23 | 327 | 14.5 | 20.9 | 0.00 | 0.00 | 0.00 | 39 | 1002.4 |
| 20260505023040 | 23 | 316 | 14.5 | 24.1 | 0.00 | 0.00 | 0.00 | 39 | 1002.3 |
| 20260505021538 | 24 | 299 | 12.9 | 25.7 | 0.00 | 0.00 | 0.00 | 38 | 1002.3 |
| 20260505020036 | 25 | 321 | 14.5 | 24.1 | 0.00 | 0.00 | 0.00 | 37 | 1002.2 |
| 20260505014533 | 25 | 317 | 20.9 | 29.0 | 0.00 | 0.00 | 0.00 | 36 | 1002.2 |
| 20260505011533 | 26 | 337 | 22.5 | 30.6 | 0.00 | 0.00 | 0.00 | 33 | 1002.3 |
| 20260505010131 | 26 | 311 | 14.5 | 32.2 | 0.00 | 0.00 | 0.00 | 36 | 1002.3 |
| 20260505004529 | 26 | 300 | 17.7 | 30.6 | 0.00 | 0.00 | 0.00 | 33 | 1002.4 |
| 20260505003027 | 26 | 311 | 14.5 | 32.2 | 0.00 | 0.00 | 0.00 | 36 | 1002.4 |
| 20260505001527 | 27 | 346 | 22.5 | 30.6 | 0.00 | 0.00 | 0.00 | 32 | 1002.3 |
| 20260505000029 | 27 | 338 | 22.5 | 30.6 | 0.00 | 0.00 | 0.00 | 33 | 1002.3 |
| 20260504233025 | 27 | 340 | 17.7 | 24.1 | 0.00 | 0.00 | 0.00 | 36 | 1002.3 |
| 20260504231624 | 28 | 344 | 12.9 | 20.9 | 0.00 | 0.00 | 0.00 | 34 | 1002.3 |
| 20260504230022 | 29 | 57 | 0.0 | 4.8 | 0.00 | 0.00 | 0.00 | 28 | 1002.6 |
| 20260504224521 | 29 | 342 | 0.0 | 3.2 | 0.00 | 0.00 | 0.00 | 35 | 1002.9 |
| 20260504223018 | 28 | 91 | 0.0 | 16.1 | 0.00 | 0.00 | 0.00 | 28 | 1003.0 |
| 20260504221516 | 28 | 82 | 3.2 | 6.4 | 0.00 | 0.00 | 0.00 | 31 | 1003.3 |
| 20260504214512 | 28 | 181 | 0.0 | 6.4 | 0.00 | 0.00 | 0.00 | 28 | 1003.9 |
| 20260504213109 | 28 | 116 | 1.6 | 4.8 | 0.00 | 0.00 | 0.00 | 26 | 1004.1 |
| 20260504211506 | 29 | 98 | 0.0 | 3.2 | 0.00 | 0.00 | 0.00 | 28 | 1004.5 |
| 20260504210003 | 27 | 142 | 0.0 | 8.0 | 0.00 | 0.00 | 0.00 | 26 | 1004.8 |
| 20260504204616 | 27 | 128 | 1.6 | 8.0 | 0.00 | 0.00 | 0.00 | 28 | 1005.2 |
| 20260504203108 | 27 | 119 | 3.2 | 6.4 | 0.00 | 0.00 | 0.00 | 27 | 1005.6 |
| 20260504200052 | 26 | 18 | 0.0 | 3.2 | 0.00 | 0.00 | 0.00 | 39 | 1006.5 |
| 20260504194550 | 25 | 55 | 1.6 | 4.8 | 0.00 | 0.00 | 0.00 | 37 | 1007.0 |
| 20260504193049 | -17 | 0.0 | 0.0 | 0.00 | 0.00 | 0.00 | 1007.5 | ||
| 20260504191543 | -17 | 0.0 | 0.0 | 0.00 | 0.00 | 0.00 | 1007.7 | ||
| 20260504190100 | -17 | 0.0 | 0.0 | 0.00 | 0.00 | 0.00 | 1007.9 | ||
| 20260504184536 | -17 | 0.0 | 0.0 | 0.00 | 0.00 | 0.00 | 1008.1 | ||
| 20260504181528 | -17 | 0.0 | 0.0 | 0.00 | 0.00 | 0.00 | 1008.3 | ||
| 20260504180024 | -17 | 0.0 | 0.0 | 0.00 | 0.00 | 0.00 | 1008.3 | ||
| 20260504174522 | -17 | 0.0 | 0.0 | 0.00 | 0.00 | 0.00 | 1008.4 | ||
| 20260504173017 | -17 | 0.0 | 0.0 | 0.00 | 0.00 | 0.00 | 1008.6 | ||
| 20260504171514 | -17 | 0.0 | 0.0 | 0.00 | 0.00 | 0.00 | 1008.6 | ||
| 20260504160103 | -17 | 0.0 | 0.0 | 0.00 | 0.00 | 0.00 | 1008.9 | ||
| 20260504150143 | -17 | 0.0 | 0.0 | 0.00 | 0.00 | 0.00 | 1009.2 | ||
| 20260504081511 | -17 | 0.0 | 0.0 | 0.00 | 0.00 | 0.00 | 1008.2 | ||
| 20260504044523 | -17 | 0.0 | 0.0 | 0.00 | 0.00 | 0.00 | 1007.9 | ||
| 20260504043018 | -17 | 0.0 | 0.0 | 0.00 | 0.00 | 0.00 | 1007.6 | ||
| 20260504041515 | -17 | 0.0 | 0.0 | 0.00 | 0.00 | 0.00 | 1007.6 | ||
| 20260504040012 | -17 | 0.0 | 0.0 | 0.00 | 0.00 | 0.00 | 1007.4 |